createdAt,value
2022-11-20T00:01:29.856Z,5.40
2022-11-20T00:03:58.841Z,5.40
2022-11-20T00:06:26.470Z,5.30
2022-11-20T00:08:56.950Z,5.20
2022-11-20T00:11:25.040Z,5.30
2022-11-20T00:13:55.006Z,5.30
2022-11-20T00:16:23.784Z,5.40
2022-11-20T00:18:51.717Z,5.40
2022-11-20T00:21:26.685Z,5.30
2022-11-20T00:23:55.611Z,5.30
2022-11-20T00:26:23.957Z,5.30
2022-11-20T00:28:53.364Z,5.40
2022-11-20T00:31:20.558Z,5.50
2022-11-20T00:33:48.101Z,5.50
2022-11-20T00:36:17.352Z,5.50
2022-11-20T00:38:45.505Z,5.50
2022-11-20T00:41:16.600Z,5.30
2022-11-20T00:43:43.892Z,5.30
2022-11-20T00:46:15.065Z,5.30
2022-11-20T00:48:42.241Z,5.30
2022-11-20T00:51:09.203Z,5.30
2022-11-20T00:53:35.992Z,5.30
2022-11-20T00:56:06.283Z,5.30
2022-11-20T00:58:35.722Z,5.40
2022-11-20T01:01:03.651Z,5.40
2022-11-20T01:03:33.154Z,5.40
2022-11-20T01:06:04.140Z,5.40
2022-11-20T01:08:35.696Z,5.40
2022-11-20T01:11:15.151Z,5.40
2022-11-20T01:13:43.278Z,5.40
2022-11-20T01:16:14.558Z,5.30
2022-11-20T01:18:43.969Z,5.30
2022-11-20T01:21:17.018Z,5.30
2022-11-20T01:23:44.668Z,5.20
2022-11-20T01:26:17.562Z,5.30
2022-11-20T01:28:44.651Z,5.20
2022-11-20T01:31:15.346Z,5.20
2022-11-20T01:33:43.234Z,5.20
2022-11-20T01:36:10.939Z,5.20
2022-11-20T01:38:37.974Z,5.30
2022-11-20T01:41:05.702Z,5.20
2022-11-20T01:43:32.651Z,5.20
2022-11-20T01:46:19.433Z,5.20
2022-11-20T01:49:01.117Z,5.20
2022-11-20T01:51:32.878Z,5.20
2022-11-20T01:54:03.786Z,5.20
2022-11-20T01:56:34.789Z,5.20
2022-11-20T01:59:03.080Z,5.30
2022-11-20T02:01:29.865Z,5.30
2022-11-20T02:03:57.457Z,5.30
2022-11-20T02:06:34.963Z,5.20
2022-11-20T02:09:01.715Z,5.30
2022-11-20T02:11:30.609Z,5.20
2022-11-20T02:13:57.310Z,5.20
2022-11-20T02:16:31.001Z,5.30
2022-11-20T02:19:00.183Z,5.30
2022-11-20T02:21:35.604Z,5.30
2022-11-20T02:24:06.978Z,5.40
2022-11-20T02:26:58.297Z,5.40
2022-11-20T02:29:57.476Z,5.30
2022-11-20T02:32:36.108Z,5.40
2022-11-20T02:35:32.094Z,5.40
2022-11-20T02:38:03.082Z,5.40
2022-11-20T02:40:30.178Z,5.40
2022-11-20T02:42:57.703Z,5.40
2022-11-20T02:45:25.696Z,5.40
2022-11-20T02:47:52.796Z,5.40
2022-11-20T02:50:19.798Z,5.40
2022-11-20T02:52:46.821Z,5.40
2022-11-20T02:55:13.520Z,5.40
2022-11-20T02:57:40.765Z,5.30
2022-11-20T03:00:08.084Z,5.30
2022-11-20T03:02:34.845Z,5.30
2022-11-20T03:05:01.658Z,5.30
2022-11-20T03:07:28.441Z,5.20
2022-11-20T03:09:55.182Z,5.30
2022-11-20T03:12:22.222Z,5.30
2022-11-20T03:14:52.791Z,5.30
2022-11-20T03:17:20.162Z,5.30
2022-11-20T03:19:46.877Z,5.30
2022-11-20T03:22:13.568Z,5.30
2022-11-20T03:24:40.238Z,5.30
2022-11-20T03:27:06.920Z,5.30
2022-11-20T03:29:33.648Z,5.30
2022-11-20T03:32:00.322Z,5.40
2022-11-20T03:34:26.982Z,5.30
2022-11-20T03:36:53.673Z,5.30
2022-11-20T03:39:20.577Z,5.30
2022-11-20T03:41:47.475Z,5.30
2022-11-20T03:44:14.190Z,5.30
2022-11-20T03:46:40.909Z,5.30
2022-11-20T03:49:07.588Z,5.30
2022-11-20T03:51:36.458Z,5.30
2022-11-20T03:54:07.319Z,5.30
2022-11-20T03:56:36.763Z,5.30
2022-11-20T03:59:04.284Z,5.30
2022-11-20T04:01:38.204Z,5.30
2022-11-20T04:04:05.549Z,5.30
2022-11-20T04:06:37.155Z,5.30
2022-11-20T04:09:04.495Z,5.30
2022-11-20T04:11:33.482Z,5.30
2022-11-20T04:14:02.030Z,5.30
2022-11-20T04:16:32.544Z,5.30
2022-11-20T04:19:02.080Z,5.30
2022-11-20T04:21:29.213Z,5.30
2022-11-20T04:23:56.652Z,5.30
2022-11-20T04:26:25.297Z,5.40
2022-11-20T04:28:52.599Z,5.40
2022-11-20T04:31:21.990Z,5.40
2022-11-20T04:33:48.731Z,5.40
2022-11-20T04:36:26.268Z,5.30
2022-11-20T04:38:57.112Z,5.30
2022-11-20T04:41:27.098Z,5.30
2022-11-20T04:44:05.581Z,5.40
2022-11-20T04:46:38.984Z,5.30
2022-11-20T04:49:06.138Z,5.30
2022-11-20T04:51:33.429Z,5.30
2022-11-20T04:54:00.168Z,5.30
2022-11-20T04:56:27.195Z,5.30
2022-11-20T04:58:54.017Z,5.30
2022-11-20T05:01:23.425Z,5.30
2022-11-20T05:03:50.606Z,5.30
2022-11-20T05:06:19.621Z,5.30
2022-11-20T05:08:46.302Z,5.30
2022-11-20T05:11:15.375Z,5.30
2022-11-20T05:13:43.023Z,5.10
2022-11-20T05:16:13.082Z,5.20
2022-11-20T05:18:40.392Z,5.20
2022-11-20T05:21:07.996Z,5.20
2022-11-20T05:23:35.550Z,5.20
2022-11-20T05:26:02.639Z,5.10
2022-11-20T05:28:30.500Z,5.10
2022-11-20T05:31:04.255Z,5.10
2022-11-20T05:33:30.919Z,5.10
2022-11-20T05:36:00.743Z,5.10
2022-11-20T05:38:27.558Z,5.10
2022-11-20T05:40:54.210Z,5.10
2022-11-20T05:43:20.896Z,5.10
2022-11-20T05:45:56.669Z,5.10
2022-11-20T05:48:23.324Z,5.10
2022-11-20T05:50:50.012Z,5.10
2022-11-20T05:53:16.865Z,5.10
2022-11-20T05:55:43.562Z,5.10
2022-11-20T05:58:10.415Z,5.10
2022-11-20T06:00:37.676Z,5.20
2022-11-20T06:03:04.590Z,5.10
2022-11-20T06:05:31.343Z,5.20
2022-11-20T06:07:58.039Z,5.20
2022-11-20T06:10:24.699Z,5.00
2022-11-20T06:12:51.381Z,5.00
2022-11-20T06:15:18.082Z,5.00
2022-11-20T06:17:44.784Z,4.90
2022-11-20T06:20:11.692Z,4.90
2022-11-20T06:22:38.367Z,4.90
2022-11-20T06:25:05.306Z,4.90
2022-11-20T06:27:32.042Z,4.90
2022-11-20T06:29:58.723Z,5.00
2022-11-20T06:32:37.101Z,5.00
2022-11-20T06:35:04.164Z,5.30
2022-11-20T06:37:30.861Z,5.10
2022-11-20T06:39:57.539Z,5.10
2022-11-20T06:42:24.301Z,5.20
2022-11-20T06:44:50.984Z,5.20
2022-11-20T06:47:17.655Z,5.20
2022-11-20T06:49:44.318Z,5.20
2022-11-20T06:52:10.976Z,5.20
2022-11-20T06:54:37.632Z,5.20
2022-11-20T06:57:04.293Z,5.20
2022-11-20T06:59:30.977Z,5.20
2022-11-20T07:01:57.640Z,5.20
2022-11-20T07:04:24.732Z,5.20
2022-11-20T07:06:51.428Z,5.30
2022-11-20T07:09:18.612Z,5.30
2022-11-20T07:11:45.280Z,5.30
2022-11-20T07:14:11.932Z,5.40
2022-11-20T07:16:38.623Z,5.40
2022-11-20T07:19:05.297Z,5.30
2022-11-20T07:21:31.947Z,5.30
2022-11-20T07:23:58.628Z,5.30
2022-11-20T07:26:25.345Z,5.30
2022-11-20T07:28:52.007Z,5.30
2022-11-20T07:31:19.615Z,5.30
2022-11-20T07:33:46.847Z,5.40
2022-11-20T07:36:13.576Z,5.40
2022-11-20T07:38:40.265Z,5.40
2022-11-20T07:41:06.971Z,5.40
2022-11-20T07:43:37.126Z,5.50
2022-11-20T07:46:07.567Z,5.60
2022-11-20T07:48:34.250Z,5.70
2022-11-20T07:51:00.974Z,5.70
2022-11-20T07:53:27.688Z,5.80
2022-11-20T07:55:54.396Z,5.90
2022-11-20T07:58:22.316Z,5.90
2022-11-20T08:00:49.109Z,5.90
2022-11-20T08:03:19.171Z,5.90
2022-11-20T08:05:48.456Z,5.90
2022-11-20T08:08:15.125Z,5.90
2022-11-20T08:10:41.789Z,5.90
2022-11-20T08:13:28.515Z,6.00
2022-11-20T08:15:55.184Z,6.00
2022-11-20T08:18:37.199Z,6.10
2022-11-20T08:21:05.332Z,6.10
2022-11-20T08:23:32.449Z,6.20
2022-11-20T08:25:59.152Z,6.20
2022-11-20T08:28:25.858Z,6.40
2022-11-20T08:30:58.181Z,6.40
2022-11-20T08:33:24.827Z,6.40
2022-11-20T08:35:51.489Z,6.40
2022-11-20T08:38:18.167Z,6.40
2022-11-20T08:41:07.756Z,6.80
2022-11-20T08:43:34.562Z,6.60
2022-11-20T08:46:01.493Z,6.70
2022-11-20T08:48:28.160Z,6.80
2022-11-20T08:50:58.195Z,6.90
2022-11-20T08:53:24.887Z,7.00
2022-11-20T08:55:51.581Z,7.20
2022-11-20T08:58:18.340Z,7.30
2022-11-20T09:00:45.096Z,7.30
2022-11-20T09:03:11.989Z,7.30
2022-11-20T09:05:38.826Z,7.30
2022-11-20T09:08:05.571Z,7.20
2022-11-20T09:10:33.113Z,7.30
2022-11-20T09:12:59.859Z,7.40
2022-11-20T09:15:27.149Z,7.50
2022-11-20T09:17:55.407Z,7.40
2022-11-20T09:20:22.806Z,7.30
2022-11-20T09:22:49.654Z,7.20
2022-11-20T09:25:16.644Z,7.20
2022-11-20T09:27:45.006Z,7.00
2022-11-20T09:30:12.735Z,6.90
2022-11-20T09:32:45.391Z,6.80
2022-11-20T09:35:12.713Z,6.70
2022-11-20T09:37:39.316Z,6.70
2022-11-20T09:40:06.869Z,6.70
2022-11-20T09:42:55.228Z,6.80
2022-11-20T09:45:37.079Z,6.90
2022-11-20T09:48:33.959Z,6.90
2022-11-20T09:51:33.280Z,7.10
2022-11-20T09:54:21.418Z,7.30
2022-11-20T09:56:55.144Z,7.50
2022-11-20T09:59:41.466Z,7.70
2022-11-20T10:02:25.254Z,8.00
2022-11-20T10:05:28.282Z,8.10
2022-11-20T10:08:06.213Z,8.20
2022-11-20T10:10:43.636Z,8.40
2022-11-20T10:14:06.214Z,8.40
2022-11-20T10:16:54.528Z,8.40
2022-11-20T10:19:43.836Z,8.50
2022-11-20T10:22:36.386Z,8.50
2022-11-20T10:25:17.063Z,9.10
2022-11-20T10:28:07.959Z,8.70
2022-11-20T10:30:40.528Z,8.70
2022-11-20T10:33:20.526Z,8.60
2022-11-20T10:36:16.464Z,8.50
2022-11-20T10:38:50.974Z,8.50
2022-11-20T10:41:26.952Z,8.50
2022-11-20T10:44:42.747Z,8.70
2022-11-20T10:47:18.024Z,8.80
2022-11-20T10:49:52.959Z,9.10
2022-11-20T10:52:22.352Z,9.30
2022-11-20T10:55:07.037Z,9.50
2022-11-20T10:57:47.288Z,9.60
2022-11-20T11:00:14.854Z,9.70
2022-11-20T11:02:54.823Z,9.70
2022-11-20T11:05:25.396Z,9.70
2022-11-20T11:07:55.910Z,9.70
2022-11-20T11:10:29.416Z,9.80
2022-11-20T11:12:56.129Z,9.80
2022-11-20T11:15:40.806Z,9.80
2022-11-20T11:18:25.336Z,9.80
2022-11-20T11:20:52.605Z,10.30
2022-11-20T11:23:39.455Z,9.80
2022-11-20T11:26:21.267Z,9.80
2022-11-20T11:28:59.660Z,9.60
2022-11-20T11:31:28.782Z,9.50
2022-11-20T11:34:16.079Z,9.60
2022-11-20T11:36:43.581Z,9.70
2022-11-20T11:39:18.333Z,9.60
2022-11-20T11:41:45.775Z,9.60
2022-11-20T11:44:37.197Z,9.70
2022-11-20T11:47:06.141Z,9.70
2022-11-20T11:49:33.179Z,9.80
2022-11-20T11:52:21.439Z,9.90
2022-11-20T11:54:48.466Z,10.10
2022-11-20T11:57:23.982Z,10.30
2022-11-20T12:00:05.530Z,10.30
2022-11-20T12:02:50.352Z,10.40
2022-11-20T12:05:26.858Z,10.40
2022-11-20T12:08:12.800Z,10.40
2022-11-20T12:10:49.065Z,10.30
2022-11-20T12:13:33.674Z,10.10
2022-11-20T12:16:02.547Z,10.10
2022-11-20T12:18:30.020Z,10.20
2022-11-20T12:21:22.451Z,10.20
2022-11-20T12:24:14.316Z,10.20
2022-11-20T12:26:47.038Z,10.30
2022-11-20T12:29:35.424Z,10.50
2022-11-20T12:32:19.384Z,10.60
2022-11-20T12:35:18.193Z,10.70
2022-11-20T12:38:27.776Z,10.70
2022-11-20T12:41:00.479Z,10.80
2022-11-20T12:44:01.176Z,10.80
2022-11-20T12:46:59.474Z,10.80
2022-11-20T12:49:42.505Z,10.80
2022-11-20T12:52:25.297Z,10.70
2022-11-20T12:54:57.960Z,10.60
2022-11-20T12:58:05.352Z,10.50
2022-11-20T13:00:35.284Z,10.40
2022-11-20T13:07:17.097Z,10.20
2022-11-20T13:09:49.463Z,9.90
2022-11-20T13:12:34.757Z,9.80
2022-11-20T13:15:29.404Z,9.80
2022-11-20T13:18:01.021Z,9.90
2022-11-20T13:20:30.189Z,9.80
2022-11-20T13:23:00.636Z,9.60
2022-11-20T13:25:32.977Z,9.50
2022-11-20T13:28:25.153Z,9.40
2022-11-20T13:30:54.630Z,9.40
2022-11-20T13:33:34.289Z,9.40
2022-11-20T13:36:05.817Z,9.50
2022-11-20T13:38:50.097Z,9.40
2022-11-20T13:41:34.220Z,9.40
2022-11-20T13:44:26.887Z,9.40
2022-11-20T13:46:53.685Z,9.50
2022-11-20T13:49:43.826Z,9.40
2022-11-20T13:52:41.519Z,9.40
2022-11-20T13:55:20.635Z,9.60
2022-11-20T13:57:47.260Z,9.60
2022-11-20T14:00:21.048Z,9.60
2022-11-20T14:03:00.791Z,9.50
2022-11-20T14:05:27.616Z,9.40
2022-11-20T14:07:55.578Z,9.30
2022-11-20T14:10:32.274Z,9.30
2022-11-20T14:12:59.755Z,9.30
2022-11-20T14:15:32.765Z,9.30
2022-11-20T14:18:00.516Z,9.30
2022-11-20T14:20:32.087Z,9.30
2022-11-20T14:22:58.742Z,9.10
2022-11-20T14:25:32.064Z,9.00
2022-11-20T14:28:00.885Z,8.90
2022-11-20T14:30:31.191Z,8.90
2022-11-20T14:33:04.196Z,8.80
2022-11-20T14:35:36.062Z,8.70
2022-11-20T14:38:04.202Z,8.60
2022-11-20T14:40:38.451Z,8.60
2022-11-20T14:43:26.207Z,8.60
2022-11-20T14:46:08.748Z,8.40
2022-11-20T14:48:42.587Z,8.30
2022-11-20T14:51:24.350Z,8.30
2022-11-20T14:53:51.960Z,8.10
2022-11-20T14:56:24.272Z,8.00
2022-11-20T14:58:58.205Z,8.00
2022-11-20T15:01:29.625Z,8.00
2022-11-20T15:04:11.194Z,8.00
2022-11-20T15:06:39.244Z,7.90
2022-11-20T15:09:14.087Z,7.80
2022-11-20T15:11:51.437Z,7.80
2022-11-20T15:14:18.242Z,7.80
2022-11-20T15:16:44.974Z,7.70
2022-11-20T15:19:20.634Z,7.80
2022-11-20T15:21:47.692Z,7.80
2022-11-20T15:24:14.453Z,7.70
2022-11-20T15:26:41.513Z,7.70
2022-11-20T15:29:13.024Z,7.70
2022-11-20T15:31:44.317Z,7.70
2022-11-20T15:34:15.328Z,7.70
2022-11-20T15:36:43.331Z,7.70
2022-11-20T15:39:10.228Z,7.60
2022-11-20T15:41:37.383Z,7.60
2022-11-20T15:44:05.434Z,7.50
2022-11-20T15:46:39.103Z,7.50
2022-11-20T15:49:06.346Z,7.40
2022-11-20T15:51:34.912Z,7.30
2022-11-20T15:54:02.954Z,7.30
2022-11-20T15:56:30.234Z,7.30
2022-11-20T15:58:56.861Z,7.30
2022-11-20T16:01:23.683Z,7.20
2022-11-20T16:03:50.548Z,7.20
2022-11-20T16:06:17.389Z,7.10
2022-11-20T16:08:44.091Z,7.00
2022-11-20T16:11:16.350Z,6.90
2022-11-20T16:14:02.038Z,6.80
2022-11-20T16:16:34.972Z,6.80
2022-11-20T16:19:01.881Z,6.80
2022-11-20T16:21:31.903Z,6.70
2022-11-20T16:24:04.351Z,6.70
2022-11-20T16:26:31.603Z,6.50
2022-11-20T16:29:00.260Z,6.30
2022-11-20T16:31:27.390Z,6.20
2022-11-20T16:33:58.563Z,6.00
2022-11-20T16:36:28.288Z,5.80
2022-11-20T16:39:00.689Z,5.60
2022-11-20T16:41:29.207Z,5.50
2022-11-20T16:43:58.188Z,5.50
2022-11-20T16:46:34.767Z,5.50
2022-11-20T16:49:07.178Z,5.40
2022-11-20T16:51:37.092Z,5.30
2022-11-20T16:54:05.499Z,5.30
2022-11-20T16:56:32.304Z,5.20
2022-11-20T16:59:00.781Z,5.10
2022-11-20T17:01:29.065Z,5.00
2022-11-20T17:04:04.771Z,5.00
2022-11-20T17:06:36.743Z,5.10
2022-11-20T17:09:04.556Z,4.90
2022-11-20T17:11:31.383Z,5.00
2022-11-20T17:14:03.452Z,4.90
2022-11-20T17:16:30.961Z,4.90
2022-11-20T17:19:02.972Z,4.80
2022-11-20T17:21:31.224Z,4.70
2022-11-20T17:24:03.166Z,4.60
2022-11-20T17:26:30.571Z,4.60
2022-11-20T17:28:59.630Z,4.50
2022-11-20T17:31:27.458Z,4.50
2022-11-20T17:33:54.244Z,4.50
2022-11-20T17:36:21.667Z,4.50
2022-11-20T17:38:48.309Z,4.40
2022-11-20T17:41:17.545Z,4.40
2022-11-20T17:43:45.287Z,4.40
2022-11-20T17:46:13.661Z,4.40
2022-11-20T17:48:43.196Z,4.30
2022-11-20T17:51:12.753Z,4.40
2022-11-20T17:53:41.997Z,4.30
2022-11-20T17:56:27.903Z,4.30
2022-11-20T17:58:54.884Z,4.30
2022-11-20T18:01:21.946Z,4.20
2022-11-20T18:03:48.954Z,4.20
2022-11-20T18:06:18.627Z,4.20
2022-11-20T18:08:46.266Z,4.20
2022-11-20T18:11:15.949Z,4.20
2022-11-20T18:14:02.979Z,4.00
2022-11-20T18:16:32.071Z,4.00
2022-11-20T18:18:59.252Z,4.00
2022-11-20T18:21:28.091Z,3.90
2022-11-20T18:23:55.641Z,3.90
2022-11-20T18:26:23.541Z,3.90
2022-11-20T18:28:50.400Z,3.90
2022-11-20T18:31:17.207Z,3.80
2022-11-20T18:33:44.128Z,3.70
2022-11-20T18:36:20.601Z,3.70
2022-11-20T18:38:49.622Z,3.70
2022-11-20T18:41:37.210Z,3.70
2022-11-20T18:44:24.816Z,3.70
2022-11-20T18:46:52.238Z,3.70
2022-11-20T18:49:18.911Z,3.60
2022-11-20T18:51:45.629Z,3.60
2022-11-20T18:54:13.304Z,3.50
2022-11-20T18:56:40.453Z,3.50
2022-11-20T18:59:32.272Z,3.40
2022-11-20T19:02:02.267Z,3.40
2022-11-20T19:04:30.216Z,3.40
2022-11-20T19:06:56.921Z,3.30
2022-11-20T19:09:24.350Z,3.30
2022-11-20T19:11:51.533Z,3.30
2022-11-20T19:14:36.343Z,3.30
2022-11-20T19:17:04.644Z,3.20
2022-11-20T19:19:31.379Z,3.20
2022-11-20T19:21:58.236Z,3.20
2022-11-20T19:24:27.466Z,3.20
2022-11-20T19:26:56.163Z,3.20
2022-11-20T19:29:24.708Z,3.20
2022-11-20T19:31:51.679Z,3.20
2022-11-20T19:34:18.620Z,3.20
2022-11-20T19:36:45.338Z,3.20
2022-11-20T19:39:12.675Z,3.10
2022-11-20T19:41:39.977Z,3.20
2022-11-20T19:44:09.625Z,3.10
2022-11-20T19:46:38.175Z,3.20
2022-11-20T19:49:07.432Z,3.20
2022-11-20T19:51:35.131Z,3.10
2022-11-20T19:54:02.268Z,3.10
2022-11-20T19:56:30.672Z,3.10
2022-11-20T19:58:58.261Z,3.10
2022-11-20T20:01:27.825Z,3.10
2022-11-20T20:03:56.570Z,3.20
2022-11-20T20:06:25.969Z,3.10
2022-11-20T20:09:02.995Z,3.10
2022-11-20T20:11:31.689Z,3.10
2022-11-20T20:14:02.429Z,3.10
2022-11-20T20:16:29.606Z,3.10
2022-11-20T20:19:01.781Z,3.10
2022-11-20T20:21:30.438Z,3.00
2022-11-20T20:23:58.064Z,3.00
2022-11-20T20:26:26.901Z,3.00
2022-11-20T20:28:53.683Z,3.00
2022-11-20T20:31:24.784Z,3.00
2022-11-20T20:33:51.473Z,3.00
2022-11-20T20:36:19.828Z,3.00
2022-11-20T20:38:47.184Z,2.90
2022-11-20T20:41:14.432Z,3.00
2022-11-20T20:43:59.912Z,3.00
2022-11-20T20:46:26.614Z,2.90
2022-11-20T20:48:54.891Z,2.90
2022-11-20T20:51:22.726Z,2.90
2022-11-20T20:53:49.846Z,2.70
2022-11-20T20:56:18.000Z,2.60
2022-11-20T20:58:44.967Z,2.50
2022-11-20T21:01:14.294Z,2.40
2022-11-20T21:03:41.258Z,2.40
2022-11-20T21:06:10.021Z,2.40
2022-11-20T21:08:40.298Z,2.40
2022-11-20T21:11:13.505Z,2.40
2022-11-20T21:13:42.839Z,2.30
2022-11-20T21:16:10.086Z,2.30
2022-11-20T21:18:36.832Z,2.30
2022-11-20T21:21:26.867Z,2.30
2022-11-20T21:23:53.856Z,2.40
2022-11-20T21:26:21.444Z,2.30
2022-11-20T21:28:49.737Z,2.30
2022-11-20T21:31:22.375Z,2.30
2022-11-20T21:33:51.399Z,2.20
2022-11-20T21:36:20.443Z,2.20
2022-11-20T21:38:48.311Z,2.30
2022-11-20T21:41:15.683Z,2.20
2022-11-20T21:43:45.697Z,2.20
2022-11-20T21:46:15.014Z,2.20
2022-11-20T21:48:43.157Z,2.20
2022-11-20T21:51:15.288Z,2.20
2022-11-20T21:53:42.493Z,2.20
2022-11-20T21:56:10.907Z,2.20
2022-11-20T21:58:39.066Z,2.20
2022-11-20T22:01:26.607Z,2.20
2022-11-20T22:03:58.756Z,2.20
2022-11-20T22:06:27.075Z,2.30
2022-11-20T22:08:53.948Z,2.30
2022-11-20T22:11:21.899Z,2.40
2022-11-20T22:14:07.400Z,2.50
2022-11-20T22:16:35.233Z,2.50
2022-11-20T22:19:02.378Z,2.50
2022-11-20T22:21:30.691Z,2.60
2022-11-20T22:23:58.376Z,2.60
2022-11-20T22:26:30.122Z,2.60
2022-11-20T22:28:58.938Z,2.60
2022-11-20T22:31:27.878Z,2.70
2022-11-20T22:33:54.937Z,2.60
2022-11-20T22:36:32.005Z,2.60
2022-11-20T22:39:01.972Z,2.70
2022-11-20T22:41:29.147Z,2.70
2022-11-20T22:44:07.594Z,2.70
2022-11-20T22:46:36.329Z,2.70
2022-11-20T22:49:05.972Z,2.80
2022-11-20T22:51:35.375Z,2.80
2022-11-20T22:54:03.466Z,2.70
2022-11-20T22:56:30.560Z,2.60
2022-11-20T22:58:57.323Z,2.50
2022-11-20T23:01:26.563Z,2.50
2022-11-20T23:03:56.422Z,2.40
2022-11-20T23:06:23.348Z,2.40
2022-11-20T23:08:50.706Z,2.40
2022-11-20T23:11:18.822Z,2.40
2022-11-20T23:13:46.420Z,2.50
2022-11-20T23:16:15.572Z,2.60
2022-11-20T23:18:43.420Z,2.70
2022-11-20T23:21:18.383Z,2.70
2022-11-20T23:23:49.961Z,2.70
2022-11-20T23:26:18.664Z,2.90
2022-11-20T23:28:45.785Z,2.90
2022-11-20T23:31:14.056Z,2.90
2022-11-20T23:33:43.829Z,3.00
2022-11-20T23:36:11.372Z,3.00
2022-11-20T23:38:38.749Z,3.00
2022-11-20T23:41:05.579Z,3.10
2022-11-20T23:43:32.497Z,3.00
2022-11-20T23:46:00.343Z,3.00
2022-11-20T23:48:29.275Z,2.90
2022-11-20T23:50:56.548Z,2.90
2022-11-20T23:53:24.294Z,2.90
2022-11-20T23:55:53.172Z,3.00
2022-11-20T23:58:21.000Z,3.10
